Time;durP1;ratioP1;P1;durP2;ratioP2;P2;SDS_P1;SDS_P2;PMS_P1;PMS_P2;Temp;Humidity;BMP_temperature;BMP_pressure;BME280_temperature;BME280_humidity;BME280_pressure;Samples;Min_cycle;Max_cycle;Signal;HPM_P1;HPM_P2
2023/03/02 00:00:15;;;;;;;;;;;;;;;4.28;100.00;99222.84;5021763;28;20432;-63
2023/03/02 00:02:40;;;;;;;;;;;;;;;4.18;100.00;99221.84;5021659;28;19936;-63
2023/03/02 00:05:07;;;;;;;;;;;;;;;4.16;100.00;99220.94;5020797;28;20384;-63
2023/03/02 00:07:33;;;;;;;;;;;;;;;4.10;100.00;99219.19;5021340;28;20613;-63
2023/03/02 00:09:59;;;;;;;;;;;;;;;4.09;100.00;99221.69;5020402;28;19936;-63
2023/03/02 00:12:29;;;;;;;;;;;;;;;4.06;100.00;99216.56;5021256;28;19925;-61
2023/03/02 00:14:54;;;;;;;;;;;;;;;3.97;100.00;99211.34;5021086;28;20404;-61
2023/03/02 00:17:26;;;;;;;;;;;;;;;3.92;100.00;99211.25;5021291;28;19929;-62
2023/03/02 00:19:52;;;;;;;;;;;;;;;3.89;100.00;99216.28;5020636;28;19944;-63
2023/03/02 00:22:18;;;;;;;;;;;;;;;3.87;100.00;99210.31;5020636;28;20074;-62
2023/03/02 00:24:44;;;;;;;;;;;;;;;3.86;100.00;99210.31;5021275;28;19929;-63
2023/03/02 00:27:09;;;;;;;;;;;;;;;3.82;100.00;99211.94;5020996;28;19925;-62
2023/03/02 00:29:35;;;;;;;;;;;;;;;3.81;100.00;99215.31;5020616;28;20519;-63
2023/03/02 00:32:02;;;;;;;;;;;;;;;3.81;100.00;99206.84;5021031;28;19995;-63
2023/03/02 00:34:31;;;;;;;;;;;;;;;3.81;100.00;99217.84;5018826;28;19929;-62
2023/03/02 00:36:57;;;;;;;;;;;;;;;3.78;100.00;99214.41;5020010;28;19973;-62
2023/03/02 00:39:22;;;;;;;;;;;;;;;3.77;100.00;99205.09;5018283;28;19974;-62
2023/03/02 00:41:48;;;;;;;;;;;;;;;3.77;100.00;99207.63;5021364;28;19929;-62
2023/03/02 00:44:16;;;;;;;;;;;;;;;3.74;100.00;99207.56;5020205;28;20062;-62
2023/03/02 00:46:42;;;;;;;;;;;;;;;3.73;100.00;99209.25;5018979;28;20123;-62
2023/03/02 00:49:07;;;;;;;;;;;;;;;3.73;100.00;99200.78;5021250;28;20352;-61
2023/03/02 00:51:32;;;;;;;;;;;;;;;3.71;100.00;99197.38;5020187;28;20006;-63
2023/03/02 00:54:01;;;;;;;;;;;;;;;3.62;100.00;99198.91;5016829;28;20332;-62
2023/03/02 00:56:27;;;;;;;;;;;;;;;3.46;100.00;99196.94;5017277;28;20027;-62
2023/03/02 00:58:53;;;;;;;;;;;;;;;3.40;100.00;99190.88;5016192;28;19925;-62
2023/03/02 01:01:19;;;;;;;;;;;;;;;3.38;100.00;99185.81;5027534;28;19925;-63
2023/03/02 01:03:48;;;;;;;;;;;;;;;3.37;100.00;99180.72;5028093;28;19932;-63
2023/03/02 01:06:15;;;;;;;;;;;;;;;3.37;100.00;99181.56;5015990;28;20326;-62
2023/03/02 01:08:41;;;;;;;;;;;;;;;3.43;100.00;99174.09;5028502;28;19946;-62
2023/03/02 01:11:18;;;;;;;;;;;;;;;3.44;100.00;99173.22;5026288;28;20340;-62
2023/03/02 01:13:44;;;;;;;;;;;;;;;3.45;100.00;99169.03;5036083;28;19962;-62
2023/03/02 01:16:10;;;;;;;;;;;;;;;3.41;100.00;99160.53;5032169;28;20382;-62
2023/03/02 01:22:13;;;;;;;;;;;;;;;3.44;100.00;99157.16;5026897;28;20287;-62
2023/03/02 01:24:39;;;;;;;;;;;;;;;3.44;100.00;99155.50;5019554;28;19936;-62
2023/03/02 01:27:04;;;;;;;;;;;;;;;3.42;100.00;99148.72;5014633;28;19926;-63
2023/03/02 01:29:30;;;;;;;;;;;;;;;3.41;100.00;99145.31;5034668;28;20579;-62
2023/03/02 01:31:55;;;;;;;;;;;;;;;3.43;100.00;99145.34;5027920;28;19925;-62
2023/03/02 01:34:21;;;;;;;;;;;;;;;3.42;100.00;99148.72;5028694;28;19971;-62
2023/03/02 01:36:46;;;;;;;;;;;;;;;3.42;100.00;99136.03;5025168;28;19949;-62
2023/03/02 01:39:15;;;;;;;;;;;;;;;3.41;100.00;99129.25;5023576;28;20643;-62
2023/03/02 01:41:44;;;;;;;;;;;;;;;3.43;100.00;99125.06;5026885;28;19936;-61
2023/03/02 01:44:29;;;;;;;;;;;;;;;3.43;100.00;99131.00;5036145;28;19931;-61
2023/03/02 01:46:55;;;;;;;;;;;;;;;3.46;100.00;99122.59;5026695;28;19998;-62
2023/03/02 01:49:21;;;;;;;;;;;;;;;3.45;100.00;99129.34;5035967;28;19963;-62
2023/03/02 01:51:54;;;;;;;;;;;;;;;3.46;100.00;99122.59;5035274;28;20047;-62
2023/03/02 01:54:22;;;;;;;;;;;;;;;3.46;100.00;99123.44;5032372;28;19928;-63
2023/03/02 01:56:55;;;;;;;;;;;;;;;3.46;100.00;99125.97;5030724;28;19931;-62
2023/03/02 01:59:23;;;;;;;;;;;;;;;3.44;100.00;99122.56;5028173;28;19925;-62
2023/03/02 02:01:50;;;;;;;;;;;;;;;3.42;100.00;99119.16;5031420;28;20616;-62
2023/03/02 02:04:16;;;;;;;;;;;;;;;3.37;100.00;99120.75;5033606;28;19982;-63
2023/03/02 02:06:52;;;;;;;;;;;;;;;3.24;100.00;99126.41;5034652;28;19963;-62
2023/03/02 02:09:19;;;;;;;;;;;;;;;3.18;100.00;99124.63;5011490;28;19928;-62
2023/03/02 02:11:46;;;;;;;;;;;;;;;3.16;100.00;99122.91;5033953;28;19951;-63
2023/03/02 02:14:11;;;;;;;;;;;;;;;3.15;100.00;99118.66;5026307;28;20479;-62
2023/03/02 02:16:37;;;;;;;;;;;;;;;3.12;100.00;99118.59;5027923;28;19939;-62
2023/03/02 02:19:09;;;;;;;;;;;;;;;3.12;100.00;99113.53;5013046;28;20218;-62
2023/03/02 02:21:35;;;;;;;;;;;;;;;3.13;100.00;99112.72;5032297;28;19924;-62
2023/03/02 02:24:21;;;;;;;;;;;;;;;3.13;100.00;99110.19;5037813;28;19929;-62
2023/03/02 02:26:48;;;;;;;;;;;;;;;3.12;100.00;99103.41;5031757;28;20277;-62
2023/03/02 02:29:21;;;;;;;;;;;;;;;3.12;100.00;99100.88;5035937;28;20011;-62
2023/03/02 02:31:52;;;;;;;;;;;;;;;3.09;100.00;99096.63;5022878;28;19963;-62
2023/03/02 02:34:21;;;;;;;;;;;;;;;3.04;100.00;99104.94;5031694;28;19971;-61
2023/03/02 02:36:49;;;;;;;;;;;;;;;3.00;100.00;99100.66;5032095;28;20001;-65
2023/03/02 02:39:27;;;;;;;;;;;;;;;2.98;100.00;99099.75;5028613;28;19929;-63
2023/03/02 02:41:55;;;;;;;;;;;;;;;2.99;100.00;99094.72;5030599;28;19931;-62
2023/03/02 02:44:21;;;;;;;;;;;;;;;2.95;100.00;99099.72;5028565;28;19964;-62
2023/03/02 02:46:47;;;;;;;;;;;;;;;2.91;100.00;99088.69;5029081;28;19992;-61
2023/03/02 02:49:34;;;;;;;;;;;;;;;2.90;100.00;99097.09;5028600;28;20421;-61
2023/03/02 02:52:03;;;;;;;;;;;;;;;2.87;100.00;99094.50;5047086;28;19925;-62
2023/03/02 02:54:30;;;;;;;;;;;;;;;2.84;100.00;99106.25;5032791;28;20838;-61
2023/03/02 02:56:57;;;;;;;;;;;;;;;2.78;100.00;99103.59;5038609;28;20653;-61
2023/03/02 02:59:35;;;;;;;;;;;;;;;2.69;100.00;99100.06;5038098;28;19960;-62
2023/03/02 03:02:01;;;;;;;;;;;;;;;2.61;100.00;99103.28;5030568;28;20015;-62
2023/03/02 03:04:28;;;;;;;;;;;;;;;2.56;100.00;99100.66;5035001;28;19955;-63
2023/03/02 03:06:56;;;;;;;;;;;;;;;2.49;100.00;99105.56;5045870;28;19925;-61
2023/03/02 03:09:23;;;;;;;;;;;;;;;2.41;100.00;99105.41;5028154;28;20373;-61
2023/03/02 03:11:50;;;;;;;;;;;;;;;2.32;100.00;99105.22;5027953;28;19924;-63
2023/03/02 03:14:19;;;;;;;;;;;;;;;2.21;100.00;99099.06;5025946;28;19925;-59
2023/03/02 03:16:47;;;;;;;;;;;;;;;2.03;100.00;99104.59;5030377;28;20077;-61
2023/03/02 03:19:18;;;;;;;;;;;;;;;1.92;100.00;99108.53;5026848;28;20422;-61
2023/03/02 03:21:43;;;;;;;;;;;;;;;1.82;100.00;99106.63;5025966;28;19924;-60
2023/03/02 03:24:09;;;;;;;;;;;;;;;1.73;100.00;99109.78;5031096;28;19945;-59
2023/03/02 03:26:35;;;;;;;;;;;;;;;1.65;100.00;99113.81;5030868;28;19974;-58
2023/03/02 03:29:01;;;;;;;;;;;;;;;1.57;100.00;99114.44;5028657;28;19936;-59
2023/03/02 03:31:27;;;;;;;;;;;;;;;1.43;100.00;99109.06;5028082;28;19928;-59
2023/03/02 03:33:54;;;;;;;;;;;;;;;1.36;100.00;99119.81;5034915;28;19933;-60
2023/03/02 03:36:21;;;;;;;;;;;;;;;1.26;100.00;99121.25;5034338;28;19925;-60
2023/03/02 03:38:47;;;;;;;;;;;;;;;1.19;100.00;99121.06;5029791;28;20413;-59
2023/03/02 03:41:14;;;;;;;;;;;;;;;1.10;100.00;99113.25;5025224;28;20023;-58
2023/03/02 03:43:40;;;;;;;;;;;;;;;1.05;100.00;99120.72;5026554;28;20002;-59
2023/03/02 03:46:05;;;;;;;;;;;;;;;0.96;100.00;99124.66;5020668;28;20388;-61
2023/03/02 03:48:31;;;;;;;;;;;;;;;0.90;100.00;99126.19;5029043;28;20120;-59
2023/03/02 03:50:58;;;;;;;;;;;;;;;0.82;100.00;99130.19;5029447;28;19932;-59
2023/03/02 03:53:24;;;;;;;;;;;;;;;0.73;100.00;99124.00;5028240;28;19938;-59
2023/03/02 03:55:49;;;;;;;;;;;;;;;0.65;100.00;99121.28;5027954;28;19935;-59
2023/03/02 03:58:15;;;;;;;;;;;;;;;0.58;100.00;99124.47;5027719;28;19929;-59
2023/03/02 04:00:40;;;;;;;;;;;;;;;0.55;100.00;99123.53;5033974;28;20398;-59
2023/03/02 04:03:08;;;;;;;;;;;;;;;0.49;100.00;99121.69;5040067;28;20441;-58
2023/03/02 04:05:35;;;;;;;;;;;;;;;0.57;100.00;99116.84;5047795;28;20008;-61
2023/03/02 04:08:02;;;;;;;;;;;;;;;0.47;100.00;99113.19;5018795;28;20107;-60
2023/03/02 04:10:28;;;;;;;;;;;;;;;0.41;100.00;99118.06;5049474;28;19978;-60
2023/03/02 04:12:54;;;;;;;;;;;;;;;0.34;100.00;99116.19;5048159;28;19972;-60
2023/03/02 04:15:20;;;;;;;;;;;;;;;0.31;100.00;99106.00;5031600;28;19924;-59
2023/03/02 04:17:47;;;;;;;;;;;;;;;0.33;100.00;99111.97;5047785;28;20581;-54
2023/03/02 04:20:15;;;;;;;;;;;;;;;0.25;100.00;99119.31;5033249;28;20006;-60
2023/03/02 04:22:44;;;;;;;;;;;;;;;0.21;100.00;99120.00;5046043;28;19925;-54
2023/03/02 04:25:11;;;;;;;;;;;;;;;0.24;100.00;99115.06;5037467;28;19925;-64
2023/03/02 04:27:38;;;;;;;;;;;;;;;0.34;100.00;99113.69;5035008;28;20551;-62
2023/03/02 04:30:04;;;;;;;;;;;;;;;0.50;100.00;99105.75;5037418;28;19924;-54
2023/03/02 04:32:30;;;;;;;;;;;;;;;0.34;100.00;99103.59;5030189;28;19969;-61
2023/03/02 04:34:56;;;;;;;;;;;;;;;0.26;100.00;99099.97;5029886;28;19924;-61
2023/03/02 04:37:22;;;;;;;;;;;;;;;0.28;100.00;99098.38;5037990;28;19932;-61
2023/03/02 04:39:50;;;;;;;;;;;;;;;0.17;100.00;99104.78;5029845;28;20090;-60
2023/03/02 04:42:19;;;;;;;;;;;;;;;0.52;100.00;99099.06;5038325;28;19962;-60
2023/03/02 04:44:45;;;;;;;;;;;;;;;0.43;100.00;99083.66;5047046;28;19928;-61
2023/03/02 04:47:11;;;;;;;;;;;;;;;0.49;100.00;99105.69;5048142;28;19925;-60
2023/03/02 04:49:36;;;;;;;;;;;;;;;0.66;100.00;99107.88;5045295;28;19943;-61
2023/03/02 04:52:02;;;;;;;;;;;;;;;0.50;100.00;99107.41;5043572;28;20042;-60
2023/03/02 04:54:27;;;;;;;;;;;;;;;0.35;100.00;99096.06;5044501;28;19982;-61
2023/03/02 04:56:53;;;;;;;;;;;;;;;0.18;100.00;99111.50;5046693;28;20220;-60
2023/03/02 04:59:21;;;;;;;;;;;;;;;0.10;100.00;99110.41;5028211;28;19959;-61
2023/03/02 05:01:47;;;;;;;;;;;;;;;0.10;100.00;99112.94;5043724;28;19925;-61
2023/03/02 05:04:12;;;;;;;;;;;;;;;-0.01;100.00;99108.44;5045138;28;19924;-60
2023/03/02 05:06:38;;;;;;;;;;;;;;;-0.15;100.00;99103.78;5048609;28;19929;-60
2023/03/02 05:09:03;;;;;;;;;;;;;;;-0.24;100.00;99106.88;5047224;28;19929;-60
2023/03/02 05:11:29;;;;;;;;;;;;;;;-0.34;100.00;99107.38;5048316;28;20410;-61
2023/03/02 05:13:58;;;;;;;;;;;;;;;-0.43;100.00;99112.16;5047666;28;20115;-61
2023/03/02 05:16:24;;;;;;;;;;;;;;;-0.48;100.00;99108.63;5048961;28;19970;-59
2023/03/02 05:18:49;;;;;;;;;;;;;;;-0.55;100.00;99105.03;5047245;28;19924;-59
2023/03/02 05:21:15;;;;;;;;;;;;;;;-0.64;100.00;99108.94;5043815;28;20169;-59
2023/03/02 05:23:41;;;;;;;;;;;;;;;-0.64;100.00;99106.44;5045447;28;19957;-59
2023/03/02 05:26:08;;;;;;;;;;;;;;;-0.59;100.00;99098.19;5030818;28;20045;-62
2023/03/02 05:28:34;;;;;;;;;;;;;;;-0.69;100.00;99105.41;5048468;28;19950;-59
2023/03/02 05:31:01;;;;;;;;;;;;;;;-0.75;100.00;99102.69;5046450;28;19951;-61
2023/03/02 05:33:26;;;;;;;;;;;;;;;-0.73;100.00;99103.59;5041855;28;19994;-61
2023/03/02 05:35:52;;;;;;;;;;;;;;;-0.82;100.00;99103.31;5022693;28;20001;-62
2023/03/02 05:38:18;;;;;;;;;;;;;;;-0.89;100.00;99102.22;5046421;28;20069;-60
2023/03/02 05:40:43;;;;;;;;;;;;;;;-0.90;100.00;99105.56;5047743;28;20480;-61
2023/03/02 05:43:12;;;;;;;;;;;;;;;-0.96;100.00;99108.72;5047690;28;20381;-57
2023/03/02 05:45:38;;;;;;;;;;;;;;;-0.94;100.00;99112.16;5049095;28;20472;-61
2023/03/02 05:48:04;;;;;;;;;;;;;;;-0.96;100.00;99117.94;5048945;28;19950;-61
2023/03/02 05:50:29;;;;;;;;;;;;;;;-0.91;100.00;99121.47;5050074;28;20372;-62
2023/03/02 05:52:55;;;;;;;;;;;;;;;-0.93;100.00;99120.53;5046683;28;19941;-63
2023/03/02 05:55:20;;;;;;;;;;;;;;;-0.86;100.00;99112.41;5046478;28;20036;-65
2023/03/02 05:57:48;;;;;;;;;;;;;;;-0.81;100.00;99115.94;5045143;28;19947;-65
2023/03/02 06:00:14;;;;;;;;;;;;;;;-0.83;100.00;99121.72;5047661;28;19963;-64
2023/03/02 06:02:40;;;;;;;;;;;;;;;-0.84;100.00;99113.31;5048367;28;19965;-57
2023/03/02 06:05:06;;;;;;;;;;;;;;;-0.79;100.00;99126.03;5047747;28;19946;-63
2023/03/02 06:07:32;;;;;;;;;;;;;;;-0.78;100.00;99122.72;5028454;28;19984;-64
2023/03/02 06:09:57;;;;;;;;;;;;;;;-0.73;100.00;99118.72;5042812;28;20191;-60
2023/03/02 06:12:23;;;;;;;;;;;;;;;-0.69;100.00;99120.53;5047653;28;20615;-63
2023/03/02 06:14:49;;;;;;;;;;;;;;;-0.62;100.00;99122.44;5047778;28;19972;-64
2023/03/02 06:17:15;;;;;;;;;;;;;;;-0.62;100.00;99120.75;5045094;28;19960;-61
2023/03/02 06:19:40;;;;;;;;;;;;;;;-0.59;100.00;99130.94;5044522;28;19944;-66
2023/03/02 06:22:06;;;;;;;;;;;;;;;-0.54;100.00;99126.03;5028680;28;19957;-62
2023/03/02 06:24:32;;;;;;;;;;;;;;;-0.51;100.00;99127.00;5047099;28;20130;-62
2023/03/02 06:26:58;;;;;;;;;;;;;;;-0.49;100.00;99129.56;5042769;28;20340;-63
2023/03/02 06:29:24;;;;;;;;;;;;;;;-0.39;100.00;99130.75;5046129;28;20054;-63
2023/03/02 06:31:49;;;;;;;;;;;;;;;-0.27;100.00;99136.16;5042786;28;19952;-64
2023/03/02 06:34:15;;;;;;;;;;;;;;;-0.21;100.00;99129.63;5044809;28;20042;-63
2023/03/02 06:36:40;;;;;;;;;;;;;;;-0.11;100.00;99138.34;5031281;28;20371;-63
2023/03/02 06:39:07;;;;;;;;;;;;;;;0.03;100.00;99136.25;5048419;28;19995;-63
2023/03/02 06:41:32;;;;;;;;;;;;;;;0.10;100.00;99128.91;5048048;28;20359;-64
2023/03/02 06:44:01;;;;;;;;;;;;;;;0.26;100.00;99132.75;5045804;28;20279;-62
2023/03/02 06:46:26;;;;;;;;;;;;;;;0.35;100.00;99141.44;5050636;28;20008;-61
2023/03/02 06:48:52;;;;;;;;;;;;;;;0.43;100.00;99134.09;5048857;28;20094;-62
2023/03/02 06:51:18;;;;;;;;;;;;;;;0.51;100.00;99134.34;5050597;28;20317;-64
2023/03/02 06:53:43;;;;;;;;;;;;;;;0.66;100.00;99133.09;5048203;28;19963;-62
2023/03/02 06:56:09;;;;;;;;;;;;;;;0.79;100.00;99132.63;5049665;28;19957;-62
2023/03/02 06:58:35;;;;;;;;;;;;;;;0.86;100.00;99131.97;5046327;28;19973;-63
2023/03/02 07:01:00;;;;;;;;;;;;;;;1.07;100.00;99126.63;5049871;28;20309;-62
2023/03/02 07:03:26;;;;;;;;;;;;;;;1.20;100.00;99137.91;5050705;28;19957;-62
2023/03/02 07:05:51;;;;;;;;;;;;;;;1.35;100.00;99135.78;5033812;28;20338;-63
2023/03/02 07:08:17;;;;;;;;;;;;;;;1.44;100.00;99138.56;5048607;28;20025;-63
2023/03/02 07:10:42;;;;;;;;;;;;;;;1.54;100.00;99143.00;5047699;28;20321;-63
2023/03/02 07:13:08;;;;;;;;;;;;;;;1.64;100.00;99137.38;5050016;28;20414;-62
2023/03/02 07:15:33;;;;;;;;;;;;;;;1.82;100.00;99132.72;5050153;28;20414;-62
2023/03/02 07:17:59;;;;;;;;;;;;;;;1.98;100.00;99135.63;5049634;28;19957;-63
2023/03/02 07:20:24;;;;;;;;;;;;;;;2.07;100.00;99133.31;5049849;28;20386;-62
2023/03/02 07:22:50;;;;;;;;;;;;;;;2.20;100.00;99137.84;5043592;28;19952;-64
2023/03/02 07:25:15;;;;;;;;;;;;;;;2.37;100.00;99135.66;5036408;28;20409;-62
2023/03/02 07:27:41;;;;;;;;;;;;;;;2.52;100.00;99131.78;5050906;28;20004;-62
2023/03/02 07:30:07;;;;;;;;;;;;;;;2.71;100.00;99136.41;5050094;28;20467;-62
2023/03/02 07:32:33;;;;;;;;;;;;;;;2.85;100.00;99131.59;5051967;28;20313;-62
2023/03/02 07:34:58;;;;;;;;;;;;;;;2.89;100.00;99138.41;5049928;28;20322;-62
2023/03/02 07:37:24;;;;;;;;;;;;;;;3.03;100.00;99129.41;5048061;28;19957;-62
2023/03/02 07:39:50;;;;;;;;;;;;;;;3.10;100.00;99132.91;5034924;28;19953;-64
2023/03/02 07:42:15;;;;;;;;;;;;;;;3.22;100.00;99123.84;5050964;28;19976;-62
2023/03/02 07:44:44;;;;;;;;;;;;;;;3.43;100.00;99135.22;5038408;28;20012;-62
2023/03/02 07:47:10;;;;;;;;;;;;;;;3.60;100.00;99131.28;5047379;28;19953;-63
2023/03/02 07:49:35;;;;;;;;;;;;;;;3.68;100.00;99138.19;5047681;28;20482;-62
2023/03/02 07:52:02;;;;;;;;;;;;;;;3.81;100.00;99135.84;5051283;28;19953;-62
2023/03/02 07:54:29;;;;;;;;;;;;;;;3.91;100.00;99136.00;5049413;28;19949;-62
2023/03/02 07:56:55;;;;;;;;;;;;;;;4.05;100.00;99138.75;5048138;28;19941;-63
2023/03/02 07:59:21;;;;;;;;;;;;;;;4.15;100.00;99140.59;5047299;28;19962;-62
2023/03/02 08:01:46;;;;;;;;;;;;;;;4.21;100.00;99145.75;5050188;28;19966;-63
2023/03/02 08:04:12;;;;;;;;;;;;;;;4.38;100.00;99136.69;5051530;28;20376;-62
2023/03/02 08:06:37;;;;;;;;;;;;;;;4.45;100.00;99140.19;5047971;28;20529;-63
2023/03/02 08:09:03;;;;;;;;;;;;;;;4.40;100.00;99137.56;5049766;28;20005;-62
2023/03/02 08:11:28;;;;;;;;;;;;;;;4.43;100.00;99126.59;5052408;28;20218;-62
2023/03/02 08:13:54;;;;;;;;;;;;;;;4.50;100.00;99139.38;5048362;28;19940;-63
2023/03/02 08:16:20;;;;;;;;;;;;;;;4.46;100.00;99131.72;5049522;28;20425;-63
2023/03/02 08:18:46;;;;;;;;;;;;;;;4.53;100.00;99136.91;5051559;28;19947;-62
2023/03/02 08:21:13;;;;;;;;;;;;;;;4.65;100.00;99137.88;5052625;28;19964;-62
2023/03/02 08:23:38;;;;;;;;;;;;;;;4.69;100.00;99121.84;5051788;28;19943;-62
2023/03/02 08:26:04;;;;;;;;;;;;;;;4.84;100.00;99129.66;5050522;28;20768;-61
2023/03/02 08:28:29;;;;;;;;;;;;;;;4.78;100.00;99122.81;5047392;28;19949;-62
2023/03/02 08:30:55;;;;;;;;;;;;;;;4.81;100.00;99122.84;5048675;28;20394;-63
2023/03/02 08:33:21;;;;;;;;;;;;;;;4.89;100.00;99125.47;5050141;28;20329;-62
2023/03/02 08:35:56;;;;;;;;;;;;;;;4.99;100.00;99118.00;5049723;28;20014;-61
2023/03/02 08:38:23;;;;;;;;;;;;;;;4.99;100.00;99107.81;5050492;28;20352;-62
2023/03/02 08:40:50;;;;;;;;;;;;;;;4.91;100.00;99104.34;5046829;28;19960;-62
2023/03/02 08:43:16;;;;;;;;;;;;;;;4.98;100.00;99116.28;5052201;28;19947;-62
2023/03/02 08:45:41;;;;;;;;;;;;;;;5.08;100.00;99107.06;5031887;28;19987;-63
2023/03/02 08:48:07;;;;;;;;;;;;;;;5.26;100.00;99104.69;5050442;28;20073;-61
2023/03/02 08:50:32;;;;;;;;;;;;;;;5.26;100.00;99106.41;5049991;28;19947;-63
2023/03/02 08:52:58;;;;;;;;;;;;;;;5.36;100.00;99105.63;5050500;28;19953;-63
2023/03/02 08:55:23;;;;;;;;;;;;;;;5.26;100.00;99099.59;5050110;28;19953;-64
2023/03/02 08:57:48;;;;;;;;;;;;;;;5.31;100.00;99104.75;5049446;28;19940;-63
2023/03/02 09:00:15;;;;;;;;;;;;;;;5.42;100.00;99101.47;5049528;28;20313;-63
2023/03/02 09:02:41;;;;;;;;;;;;;;;5.66;100.00;99094.88;5049432;28;19966;-64
2023/03/02 09:05:06;;;;;;;;;;;;;;;5.67;100.00;99094.03;5048301;28;19951;-63
2023/03/02 09:07:32;;;;;;;;;;;;;;;5.75;100.00;99097.50;5050067;28;20467;-63
2023/03/02 09:09:57;;;;;;;;;;;;;;;5.85;100.00;99094.19;5045182;28;19946;-64
2023/03/02 09:12:22;;;;;;;;;;;;;;;6.10;100.00;99082.50;5047723;28;19929;-64
2023/03/02 09:14:48;;;;;;;;;;;;;;;6.18;100.00;99086.81;5047699;28;19954;-62
2023/03/02 09:17:14;;;;;;;;;;;;;;;6.27;100.00;99091.94;5050379;28;19943;-63
2023/03/02 09:19:42;;;;;;;;;;;;;;;6.28;100.00;99096.19;5051096;28;19948;-64
2023/03/02 09:22:08;;;;;;;;;;;;;;;6.09;100.00;99089.28;5051212;28;19987;-63
2023/03/02 09:24:34;;;;;;;;;;;;;;;6.04;100.00;99083.31;5050753;28;19982;-62
2023/03/02 09:27:00;;;;;;;;;;;;;;;6.08;100.00;99084.19;5047374;28;20423;-63
2023/03/02 09:29:26;;;;;;;;;;;;;;;6.28;100.00;99091.09;5046286;28;19943;-62
2023/03/02 09:31:51;;;;;;;;;;;;;;;6.09;100.00;99088.44;5048765;28;19942;-63
2023/03/02 09:34:17;;;;;;;;;;;;;;;6.04;100.00;99087.56;5046501;28;19966;-63
2023/03/02 09:36:43;;;;;;;;;;;;;;;6.17;100.00;99086.78;5048891;28;19928;-64
2023/03/02 09:39:11;;;;;;;;;;;;;;;6.28;100.00;99083.44;5048615;28;20476;-62
2023/03/02 09:41:57;;;;;;;;;;;;;;;6.42;100.00;99075.88;5045915;28;19962;-63
2023/03/02 09:44:35;;;;;;;;;;;;;;;6.48;100.00;99077.63;5045162;28;19924;-63
2023/03/02 09:47:09;;;;;;;;;;;;;;;6.40;100.00;99072.50;5048820;28;20066;-63
2023/03/02 09:49:37;;;;;;;;;;;;;;;6.95;100.00;99072.69;5049902;28;20404;-63
2023/03/02 09:52:21;;;;;;;;;;;;;;;6.97;99.95;99074.38;5048521;28;19943;-63
2023/03/02 09:54:47;;;;;;;;;;;;;;;6.96;99.19;99070.13;5051697;28;20511;-63
2023/03/02 09:57:19;;;;;;;;;;;;;;;6.82;100.00;99069.25;5053481;28;20428;-63
2023/03/02 09:59:47;;;;;;;;;;;;;;;6.95;100.00;99071.00;5051165;28;19963;-63
2023/03/02 10:02:21;;;;;;;;;;;;;;;7.14;100.00;99070.16;5048913;28;19958;-64
2023/03/02 10:04:49;;;;;;;;;;;;;;;7.31;99.77;99075.28;5050126;28;20000;-63
2023/03/02 10:07:36;;;;;;;;;;;;;;;7.25;99.24;99077.84;5051974;28;19948;-66
2023/03/02 10:10:08;;;;;;;;;;;;;;;7.45;99.76;99067.66;5028322;28;20339;-62
2023/03/02 10:12:33;;;;;;;;;;;;;;;7.58;97.58;99070.22;5052663;28;20431;-62
2023/03/02 10:15:04;;;;;;;;;;;;;;;7.67;97.71;99066.81;5052269;28;20465;-62
2023/03/02 10:17:43;;;;;;;;;;;;;;;7.93;96.62;99067.66;5059209;28;19924;-61
2023/03/02 10:20:30;;;;;;;;;;;;;;;7.98;95.00;99065.91;5059386;28;20002;-62
2023/03/02 10:23:00;;;;;;;;;;;;;;;7.75;94.79;99062.56;5055488;28;19968;-62
2023/03/02 10:25:26;;;;;;;;;;;;;;;7.95;95.41;99065.91;5053705;28;20267;-62
2023/03/02 10:27:53;;;;;;;;;;;;;;;7.97;95.41;99061.69;5052682;28;19928;-58
2023/03/02 10:30:24;;;;;;;;;;;;;;;8.15;93.30;99050.53;5033751;28;19947;-61
2023/03/02 10:32:51;;;;;;;;;;;;;;;8.18;92.75;99060.78;5048113;28;20469;-62
2023/03/02 10:35:23;;;;;;;;;;;;;;;7.73;97.71;99054.03;5053101;28;20028;-63
2023/03/02 10:38:01;;;;;;;;;;;;;;;7.95;99.03;99054.84;5052852;28;20375;-69
2023/03/02 10:40:26;;;;;;;;;;;;;;;8.16;95.19;99045.44;5050419;28;20023;-64
2023/03/02 10:42:53;;;;;;;;;;;;;;;8.18;93.19;99043.75;5049874;28;20366;-59
2023/03/02 10:45:23;;;;;;;;;;;;;;;8.21;93.99;99042.88;5043841;28;20425;-62
2023/03/02 10:47:58;;;;;;;;;;;;;;;8.20;93.87;99029.25;5048824;28;19959;-62
2023/03/02 10:50:24;;;;;;;;;;;;;;;8.40;93.66;99033.50;5048732;28;20327;-62
2023/03/02 10:52:50;;;;;;;;;;;;;;;8.62;94.03;99027.41;5052436;28;19924;-62
2023/03/02 10:55:16;;;;;;;;;;;;;;;8.66;92.44;99034.22;5051731;28;19979;-62
2023/03/02 10:57:43;;;;;;;;;;;;;;;8.65;95.04;99032.53;5050126;28;19937;-62
2023/03/02 11:00:21;;;;;;;;;;;;;;;8.83;94.19;99031.56;5053375;28;19928;-62
2023/03/02 11:02:54;;;;;;;;;;;;;;;8.84;92.94;99023.03;5052361;28;19970;-62
2023/03/02 11:05:19;;;;;;;;;;;;;;;8.97;90.36;99022.09;5051974;28;19959;-63
2023/03/02 11:07:56;;;;;;;;;;;;;;;8.94;90.45;99020.44;5047949;28;19965;-61
2023/03/02 11:10:23;;;;;;;;;;;;;;;9.00;90.63;99022.09;5051440;28;20006;-61
2023/03/02 11:12:51;;;;;;;;;;;;;;;9.18;88.98;99022.81;5050907;28;20341;-60
2023/03/02 11:15:17;;;;;;;;;;;;;;;9.07;88.26;99010.97;5049622;28;20301;-61
2023/03/02 11:17:43;;;;;;;;;;;;;;;9.22;86.82;99022.78;5048488;28;19948;-60
2023/03/02 11:20:29;;;;;;;;;;;;;;;9.11;87.46;99017.75;5049395;28;19929;-60
2023/03/02 11:23:04;;;;;;;;;;;;;;;9.29;83.82;99015.06;5048481;28;19970;-60
2023/03/02 11:25:34;;;;;;;;;;;;;;;9.35;84.19;99014.16;5050896;28;19935;-61
2023/03/02 11:28:04;;;;;;;;;;;;;;;9.51;83.27;99016.56;5033572;28;19952;-62
2023/03/02 11:30:33;;;;;;;;;;;;;;;9.53;81.28;99011.47;5054446;28;19931;-61
2023/03/02 11:33:01;;;;;;;;;;;;;;;9.52;80.98;99009.75;5053340;28;20548;-62
2023/03/02 11:35:39;;;;;;;;;;;;;;;9.32;82.53;99003.97;5034485;28;20024;-61
2023/03/02 11:38:16;;;;;;;;;;;;;;;9.45;79.85;99010.69;5052265;28;19924;-60
2023/03/02 11:41:02;;;;;;;;;;;;;;;9.62;79.14;99002.00;5052093;28;20336;-61
2023/03/02 11:43:27;;;;;;;;;;;;;;;9.58;76.79;99000.31;5048783;28;20317;-63
2023/03/02 11:45:59;;;;;;;;;;;;;;;9.74;74.61;98993.34;5048604;28;19931;-59
2023/03/02 11:48:33;;;;;;;;;;;;;;;9.61;76.06;98990.06;5046916;28;20479;-61
2023/03/02 11:51:04;;;;;;;;;;;;;;;9.71;75.70;98979.72;5049101;28;20542;-62
2023/03/02 11:53:38;;;;;;;;;;;;;;;9.69;72.29;98976.31;5047619;28;20241;-60
2023/03/02 11:56:03;;;;;;;;;;;;;;;9.78;71.48;98974.53;5050288;28;19987;-61
2023/03/02 11:58:30;;;;;;;;;;;;;;;9.83;71.18;98979.59;5051271;28;19928;-61
2023/03/02 12:00:55;;;;;;;;;;;;;;;9.87;75.65;98971.88;5034068;28;19928;-62
2023/03/02 12:03:41;;;;;;;;;;;;;;;10.01;75.28;98969.16;5048607;28;20375;-61
2023/03/02 12:06:24;;;;;;;;;;;;;;;10.06;69.83;98969.94;5029654;28;19925;-61
2023/03/02 12:09:05;;;;;;;;;;;;;;;10.20;66.71;98964.69;5051277;28;20024;-63
2023/03/02 12:11:34;;;;;;;;;;;;;;;10.14;63.26;98955.34;5049976;28;19942;-61
2023/03/02 12:14:01;;;;;;;;;;;;;;;10.24;60.73;98949.25;5047968;28;20059;-61
2023/03/02 12:16:34;;;;;;;;;;;;;;;10.14;63.46;98949.38;5050069;28;19944;-60
2023/03/02 12:19:11;;;;;;;;;;;;;;;10.15;60.67;98948.47;5052169;28;19947;-61
2023/03/02 12:21:40;;;;;;;;;;;;;;;10.14;58.82;98946.81;5049555;28;19955;-60
2023/03/02 12:24:21;;;;;;;;;;;;;;;10.19;57.04;98947.59;5050580;28;19945;-61
2023/03/02 12:26:47;;;;;;;;;;;;;;;10.32;56.20;98936.34;5046480;28;19944;-61
2023/03/02 12:29:13;;;;;;;;;;;;;;;10.43;55.81;98932.78;5031707;28;20436;-63
2023/03/02 12:31:44;;;;;;;;;;;;;;;10.47;55.50;98941.28;5047938;28;19946;-61
2023/03/02 12:34:21;;;;;;;;;;;;;;;10.47;51.14;98928.47;5047035;28;20253;-61
2023/03/02 12:36:47;;;;;;;;;;;;;;;10.66;47.81;98926.47;5048277;28;20264;-61
2023/03/02 12:39:16;;;;;;;;;;;;;;;10.53;49.67;98928.34;5049329;28;20259;-60
2023/03/02 12:41:57;;;;;;;;;;;;;;;10.42;50.46;98925.09;5047318;28;19957;-62
2023/03/02 12:44:42;;;;;;;;;;;;;;;10.28;52.00;98921.88;5029366;28;19939;-60
2023/03/02 12:47:25;;;;;;;;;;;;;;;10.36;55.15;98918.34;5049822;28;19949;-61
2023/03/02 12:50:06;;;;;;;;;;;;;;;10.47;54.08;98913.94;5041197;28;20396;-61
2023/03/02 12:52:35;;;;;;;;;;;;;;;10.43;52.51;98914.84;5048642;28;19953;-62
2023/03/02 12:55:17;;;;;;;;;;;;;;;10.52;53.83;98913.88;5049545;28;19943;-61